createdAt,value
2019-04-07T00:00:12.420Z,17.50
2019-04-07T00:01:48.278Z,15.55
2019-04-07T00:03:23.042Z,14.78
2019-04-07T00:05:09.322Z,15.95
2019-04-07T00:06:33.882Z,16.75
2019-04-07T00:08:08.118Z,15.18
2019-04-07T00:09:42.483Z,15.58
2019-04-07T00:11:17.453Z,14.85
2019-04-07T00:12:52.190Z,15.48
2019-04-07T00:14:26.412Z,15.08
2019-04-07T00:16:01.358Z,14.90
2019-04-07T00:17:36.425Z,14.38
2019-04-07T00:19:11.138Z,16.12
2019-04-07T00:20:45.588Z,16.70
2019-04-07T00:22:19.970Z,17.62
2019-04-07T00:23:54.467Z,17.87
2019-04-07T00:25:28.853Z,16.07
2019-04-07T00:27:03.552Z,18.85
2019-04-07T00:28:39.485Z,18.92
2019-04-07T00:30:14.834Z,17.02
2019-04-07T00:31:50.053Z,17.37
2019-04-07T00:33:25.530Z,16.30
2019-04-07T00:35:00.072Z,15.65
2019-04-07T00:36:34.265Z,17.77
2019-04-07T00:38:09.538Z,15.32
2019-04-07T00:39:43.951Z,15.70
2019-04-07T00:41:18.359Z,15.83
2019-04-07T00:42:53.347Z,13.95
2019-04-07T00:44:27.998Z,16.07
2019-04-07T00:46:02.412Z,16.70
2019-04-07T00:47:37.277Z,17.12
2019-04-07T00:49:11.886Z,15.85
2019-04-07T00:50:46.934Z,15.78
2019-04-07T00:52:22.983Z,14.03
2019-04-07T00:53:58.005Z,14.87
2019-04-07T00:55:32.237Z,15.15
2019-04-07T00:57:06.870Z,18.12
2019-04-07T00:58:41.101Z,16.95
2019-04-07T01:00:17.253Z,15.98
2019-04-07T01:01:51.650Z,14.25
2019-04-07T01:03:26.913Z,14.75
2019-04-07T01:05:01.803Z,14.43
2019-04-07T01:06:36.118Z,15.78
2019-04-07T01:08:10.778Z,15.20
2019-04-07T01:09:45.486Z,16.10
2019-04-07T01:11:20.063Z,16.17
2019-04-07T01:12:54.466Z,14.20
2019-04-07T01:14:29.019Z,14.28
2019-04-07T01:16:03.897Z,14.00
2019-04-07T01:17:38.238Z,14.60
2019-04-07T01:19:12.489Z,14.70
2019-04-07T01:20:46.894Z,14.45
2019-04-07T01:22:21.870Z,15.40
2019-04-07T01:23:56.910Z,15.00
2019-04-07T01:25:31.459Z,14.18
2019-04-07T01:27:05.746Z,14.43
2019-04-07T01:28:40.708Z,14.87
2019-04-07T01:30:16.077Z,14.65
2019-04-07T01:31:50.621Z,14.58
2019-04-07T01:33:25.578Z,14.68
2019-04-07T01:35:01.304Z,14.85
2019-04-07T01:36:35.843Z,14.83
2019-04-07T01:38:10.373Z,14.40
2019-04-07T01:39:45.011Z,13.43
2019-04-07T01:41:34.037Z,15.72
2019-04-07T01:43:10.534Z,14.50
2019-04-07T01:44:47.228Z,13.28
2019-04-07T01:46:26.159Z,13.72
2019-04-07T01:48:08.093Z,13.50
2019-04-07T01:49:44.504Z,14.07
2019-04-07T01:51:21.140Z,14.35
2019-04-07T01:52:57.089Z,13.72
2019-04-07T01:54:36.291Z,13.58
2019-04-07T01:56:27.388Z,12.43
2019-04-07T01:58:16.159Z,13.80
2019-04-07T01:59:58.608Z,14.23
2019-04-07T02:01:52.698Z,14.47
2019-04-07T02:03:44.609Z,13.95
2019-04-07T02:05:33.374Z,13.58
2019-04-07T02:07:27.337Z,15.55
2019-04-07T02:09:03.310Z,17.02
2019-04-07T02:10:55.037Z,18.37
2019-04-07T02:12:31.365Z,18.25
2019-04-07T02:14:20.186Z,18.35
2019-04-07T02:16:02.839Z,18.12
2019-04-07T02:17:45.560Z,17.67
2019-04-07T02:19:30.513Z,18.85
2019-04-07T02:21:13.025Z,19.27
2019-04-07T02:22:49.776Z,18.17
2019-04-07T02:24:28.783Z,19.15
2019-04-07T02:26:20.269Z,19.42
2019-04-07T02:28:02.333Z,18.82
2019-04-07T02:29:41.098Z,18.87
2019-04-07T02:31:19.684Z,17.65
2019-04-07T02:32:55.972Z,19.20
2019-04-07T02:34:44.114Z,17.55
2019-04-07T02:36:27.452Z,17.92
2019-04-07T02:38:02.052Z,17.70
2019-04-07T02:39:38.690Z,17.95
2019-04-07T02:41:15.796Z,17.98
2019-04-07T02:43:08.928Z,17.23
2019-04-07T02:45:01.402Z,17.85
2019-04-07T02:46:46.335Z,17.67
2019-04-07T02:48:35.173Z,17.45
2019-04-07T02:50:17.695Z,16.85
2019-04-07T02:52:06.123Z,17.02
2019-04-07T02:53:51.116Z,17.25
2019-04-07T02:55:36.367Z,17.45
2019-04-07T02:57:18.975Z,18.10
2019-04-07T02:59:10.411Z,17.52
2019-04-07T03:00:52.323Z,18.00
2019-04-07T03:02:34.635Z,18.35
2019-04-07T03:04:26.305Z,18.77
2019-04-07T03:06:08.848Z,19.15
2019-04-07T03:07:50.763Z,19.70
2019-04-07T03:09:30.002Z,17.87
2019-04-07T03:11:09.642Z,17.90
2019-04-07T03:13:02.799Z,17.77
2019-04-07T03:14:42.087Z,17.82
2019-04-07T03:16:17.981Z,19.05
2019-04-07T03:18:08.969Z,20.10
2019-04-07T03:19:48.626Z,17.98
2019-04-07T03:21:24.758Z,18.05
2019-04-07T03:23:07.279Z,18.25
2019-04-07T03:24:46.334Z,17.98
2019-04-07T03:26:25.795Z,18.35
2019-04-07T03:28:01.923Z,18.32
2019-04-07T03:29:38.409Z,17.50
2019-04-07T03:31:32.172Z,18.00
2019-04-07T03:33:16.492Z,17.48
2019-04-07T03:34:55.422Z,19.57
2019-04-07T03:37:12.779Z,18.62
2019-04-07T03:38:25.776Z,16.30
2019-04-07T03:40:02.590Z,18.12
2019-04-07T03:41:39.921Z,17.42
2019-04-07T03:43:32.898Z,17.87
2019-04-07T03:45:22.161Z,16.82
2019-04-07T03:47:01.468Z,17.75
2019-04-07T03:48:46.539Z,18.05
2019-04-07T03:50:23.049Z,18.48
2019-04-07T03:52:02.012Z,17.35
2019-04-07T03:53:55.912Z,17.07
2019-04-07T03:55:49.287Z,17.80
2019-04-07T03:57:28.350Z,20.32
2019-04-07T03:59:10.938Z,19.50
2019-04-07T04:01:15.707Z,21.52
2019-04-07T04:02:54.943Z,19.07
2019-04-07T04:04:34.249Z,18.35
2019-04-07T04:06:13.892Z,19.15
2019-04-07T04:07:50.126Z,19.75
2019-04-07T04:09:42.814Z,19.52
2019-04-07T04:11:19.102Z,18.90
2019-04-07T04:13:03.823Z,18.12
2019-04-07T04:14:55.084Z,19.23
2019-04-07T04:16:29.793Z,19.92
2019-04-07T04:18:04.020Z,17.92
2019-04-07T04:19:38.415Z,18.42
2019-04-07T04:21:12.858Z,18.10
2019-04-07T04:22:47.158Z,18.50
2019-04-07T04:24:21.556Z,17.45
2019-04-07T04:25:56.282Z,17.27
2019-04-07T04:27:31.260Z,17.40
2019-04-07T04:29:06.030Z,22.90
2019-04-07T04:30:40.466Z,19.55
2019-04-07T04:32:15.284Z,20.65
2019-04-07T04:33:50.106Z,17.20
2019-04-07T04:35:24.667Z,16.73
2019-04-07T04:36:59.943Z,17.23
2019-04-07T04:38:34.450Z,18.02
2019-04-07T04:40:09.370Z,17.82
2019-04-07T04:41:44.696Z,19.95
2019-04-07T04:43:19.778Z,40.12
2019-04-07T04:44:54.370Z,33.67
2019-04-07T04:46:30.392Z,24.32
2019-04-07T04:48:04.915Z,24.90
2019-04-07T04:49:39.144Z,28.92
2019-04-07T04:51:13.527Z,22.07
2019-04-07T04:52:48.745Z,26.60
2019-04-07T04:54:23.094Z,23.85
2019-04-07T04:55:57.663Z,18.60
2019-04-07T04:57:32.607Z,20.00
2019-04-07T04:59:07.459Z,19.67
2019-04-07T05:00:42.845Z,20.50
2019-04-07T05:02:17.478Z,18.40
2019-04-07T05:03:52.531Z,17.77
2019-04-07T05:05:28.007Z,19.95
2019-04-07T05:07:03.295Z,21.05
2019-04-07T05:08:39.190Z,20.97
2019-04-07T05:10:13.594Z,20.12
2019-04-07T05:11:48.535Z,21.97
2019-04-07T05:13:22.848Z,23.57
2019-04-07T05:14:57.193Z,21.42
2019-04-07T05:16:32.104Z,21.27
2019-04-07T05:18:07.301Z,20.72
2019-04-07T05:19:42.880Z,20.65
2019-04-07T05:21:17.432Z,20.50
2019-04-07T05:22:52.266Z,21.45
2019-04-07T05:24:27.096Z,22.98
2019-04-07T05:26:01.460Z,21.37
2019-04-07T05:27:35.740Z,22.25
2019-04-07T05:29:10.898Z,21.00
2019-04-07T05:30:46.853Z,19.05
2019-04-07T05:32:21.262Z,18.95
2019-04-07T05:33:55.633Z,17.77
2019-04-07T05:35:29.959Z,24.80
2019-04-07T05:37:04.531Z,22.27
2019-04-07T05:38:39.458Z,29.90
2019-04-07T05:40:14.075Z,20.10
2019-04-07T05:41:48.285Z,18.57
2019-04-07T05:43:22.760Z,16.37
2019-04-07T05:44:57.099Z,19.37
2019-04-07T05:46:31.406Z,15.40
2019-04-07T05:48:05.620Z,18.80
2019-04-07T05:49:40.364Z,17.92
2019-04-07T05:51:14.635Z,15.55
2019-04-07T05:52:48.914Z,19.57
2019-04-07T05:54:24.009Z,17.17
2019-04-07T05:55:58.780Z,15.15
2019-04-07T05:57:34.864Z,17.25
2019-04-07T05:59:11.648Z,15.13
2019-04-07T06:00:46.963Z,15.75
2019-04-07T06:02:21.133Z,16.12
2019-04-07T06:03:55.447Z,15.95
2019-04-07T06:05:30.241Z,15.58
2019-04-07T06:07:04.616Z,16.30
2019-04-07T06:08:40.373Z,15.68
2019-04-07T06:10:15.505Z,15.15
2019-04-07T06:11:49.866Z,16.52
2019-04-07T06:13:24.690Z,17.30
2019-04-07T06:14:59.620Z,17.35
2019-04-07T06:16:34.393Z,15.45
2019-04-07T06:18:09.383Z,17.17
2019-04-07T06:19:44.396Z,15.08
2019-04-07T06:21:18.895Z,14.28
2019-04-07T06:22:54.452Z,13.98
2019-04-07T06:24:32.162Z,15.80
2019-04-07T06:26:09.300Z,16.25
2019-04-07T06:27:44.933Z,16.17
2019-04-07T06:29:18.301Z,16.45
2019-04-07T06:30:53.060Z,15.30
2019-04-07T06:32:27.618Z,15.90
2019-04-07T06:34:02.117Z,15.50
2019-04-07T06:35:36.523Z,15.60
2019-04-07T06:37:11.141Z,15.68
2019-04-07T06:38:51.137Z,15.65
2019-04-07T06:40:22.301Z,15.58
2019-04-07T06:42:00.383Z,16.23
2019-04-07T06:43:35.166Z,16.00
2019-04-07T06:45:11.855Z,17.42
2019-04-07T06:46:58.566Z,16.77
2019-04-07T06:48:30.626Z,15.60
2019-04-07T06:50:14.139Z,15.30
2019-04-07T06:52:00.793Z,14.33
2019-04-07T06:53:35.270Z,15.70
2019-04-07T06:55:28.003Z,14.75
2019-04-07T06:57:20.068Z,15.48
2019-04-07T06:59:11.854Z,14.83
2019-04-07T07:01:03.302Z,14.43
2019-04-07T07:02:48.945Z,14.45
2019-04-07T07:04:27.856Z,14.93
2019-04-07T07:06:17.350Z,14.80
2019-04-07T07:07:54.211Z,16.05
2019-04-07T07:09:31.779Z,17.07
2019-04-07T07:11:09.787Z,17.62
2019-04-07T07:12:52.516Z,18.02
2019-04-07T07:14:46.973Z,16.70
2019-04-07T07:16:36.143Z,16.40
2019-04-07T07:18:22.121Z,14.40
2019-04-07T07:20:01.743Z,15.28
2019-04-07T07:21:42.621Z,15.63
2019-04-07T07:23:18.687Z,17.45
2019-04-07T07:24:56.423Z,15.05
2019-04-07T07:26:32.984Z,15.83
2019-04-07T07:28:07.334Z,16.85
2019-04-07T07:29:45.371Z,14.95
2019-04-07T07:31:18.167Z,14.98
2019-04-07T07:32:52.869Z,15.72
2019-04-07T07:34:27.294Z,17.35
2019-04-07T07:36:02.345Z,17.62
2019-04-07T07:37:36.662Z,18.98
2019-04-07T07:39:12.561Z,17.55
2019-04-07T07:40:47.772Z,16.48
2019-04-07T07:42:24.226Z,17.12
2019-04-07T07:44:02.666Z,16.20
2019-04-07T07:45:34.962Z,16.37
2019-04-07T07:47:09.238Z,16.57
2019-04-07T07:48:43.457Z,17.20
2019-04-07T07:50:17.881Z,16.82
2019-04-07T07:51:52.756Z,17.32
2019-04-07T07:53:28.619Z,18.05
2019-04-07T07:55:03.768Z,16.40
2019-04-07T07:56:41.542Z,16.95
2019-04-07T07:58:14.314Z,15.95
2019-04-07T07:59:48.662Z,16.40
2019-04-07T08:01:23.530Z,16.05
2019-04-07T08:02:58.244Z,16.23
2019-04-07T08:04:33.382Z,17.02
2019-04-07T08:06:08.415Z,16.52
2019-04-07T08:07:46.807Z,15.80
2019-04-07T08:09:23.109Z,15.15
2019-04-07T08:10:58.540Z,15.80
2019-04-07T08:12:34.284Z,15.80
2019-04-07T08:14:07.783Z,16.15
2019-04-07T08:15:43.719Z,16.50
2019-04-07T08:17:19.334Z,16.82
2019-04-07T08:18:53.709Z,17.37
2019-04-07T08:20:28.590Z,17.02
2019-04-07T08:22:03.106Z,16.50
2019-04-07T08:23:39.011Z,17.57
2019-04-07T08:25:14.137Z,15.80
2019-04-07T08:26:48.863Z,15.53
2019-04-07T08:28:23.324Z,16.77
2019-04-07T08:29:58.285Z,16.37
2019-04-07T08:31:32.774Z,14.70
2019-04-07T08:33:07.318Z,14.90
2019-04-07T08:34:41.648Z,15.30
2019-04-07T08:36:16.327Z,17.07
2019-04-07T08:37:50.651Z,15.38
2019-04-07T08:39:27.037Z,15.32
2019-04-07T08:41:00.942Z,15.23
2019-04-07T08:42:35.780Z,14.98
2019-04-07T08:44:12.567Z,15.00
2019-04-07T08:45:47.059Z,14.30
2019-04-07T08:47:23.134Z,15.90
2019-04-07T08:49:00.192Z,14.03
2019-04-07T08:50:35.021Z,14.20
2019-04-07T08:52:12.055Z,14.07
2019-04-07T08:53:46.082Z,14.58
2019-04-07T08:55:21.846Z,13.95
2019-04-07T08:56:58.219Z,14.90
2019-04-07T08:58:36.868Z,14.23
2019-04-07T09:00:16.381Z,15.95
2019-04-07T09:01:52.266Z,16.60
2019-04-07T09:03:24.277Z,14.60
2019-04-07T09:05:00.263Z,14.58
2019-04-07T09:06:34.697Z,15.25
2019-04-07T09:08:09.276Z,14.87
2019-04-07T09:09:47.418Z,14.83
2019-04-07T09:11:23.277Z,16.07
2019-04-07T09:13:00.644Z,19.98
2019-04-07T09:14:33.258Z,14.73
2019-04-07T09:16:17.369Z,14.38
2019-04-07T09:17:53.190Z,14.58
2019-04-07T09:19:35.018Z,14.45
2019-04-07T09:21:18.643Z,26.85
2019-04-07T09:22:56.690Z,16.57
2019-04-07T09:24:43.980Z,17.12
2019-04-07T09:26:33.295Z,22.75
2019-04-07T09:28:15.314Z,17.15
2019-04-07T09:30:01.097Z,29.95
2019-04-07T09:31:37.489Z,20.70
2019-04-07T09:33:16.722Z,24.45
2019-04-07T09:34:58.871Z,16.62
2019-04-07T09:36:47.707Z,14.85
2019-04-07T09:38:38.619Z,15.30
2019-04-07T09:40:27.814Z,17.32
2019-04-07T09:42:10.120Z,16.52
2019-04-07T09:44:03.124Z,17.20
2019-04-07T09:45:40.012Z,18.73
2019-04-07T09:47:19.623Z,18.37
2019-04-07T09:49:13.527Z,17.60
2019-04-07T09:50:55.021Z,16.67
2019-04-07T09:52:48.819Z,17.90
2019-04-07T09:54:32.337Z,16.42
2019-04-07T09:56:19.356Z,23.83
2019-04-07T09:57:58.193Z,18.95
2019-04-07T09:59:40.155Z,24.63
2019-04-07T10:01:27.763Z,25.10
2019-04-07T10:03:15.168Z,24.98
2019-04-07T10:04:51.040Z,28.32
2019-04-07T10:06:39.342Z,19.90
2019-04-07T10:08:19.182Z,27.37
2019-04-07T10:10:08.569Z,25.15
2019-04-07T10:11:38.589Z,21.82
2019-04-07T10:13:24.092Z,16.15
2019-04-07T10:15:16.645Z,15.28
2019-04-07T10:16:56.278Z,13.65
2019-04-07T10:18:36.093Z,13.70
2019-04-07T10:20:25.962Z,15.63
2019-04-07T10:22:18.446Z,16.25
2019-04-07T10:24:06.394Z,13.65
2019-04-07T10:25:58.365Z,15.13
2019-04-07T10:27:34.551Z,17.70
2019-04-07T10:29:11.025Z,15.88
2019-04-07T10:30:47.346Z,15.15
2019-04-07T10:32:35.516Z,17.50
2019-04-07T10:34:14.916Z,17.52
2019-04-07T10:35:56.999Z,19.67
2019-04-07T10:37:36.205Z,20.55
2019-04-07T10:39:14.261Z,15.55
2019-04-07T10:40:50.390Z,18.98
2019-04-07T10:42:29.364Z,16.07
2019-04-07T10:44:21.446Z,17.73
2019-04-07T10:46:17.934Z,16.52
2019-04-07T10:48:02.860Z,19.15
2019-04-07T10:50:02.417Z,13.38
2019-04-07T10:51:32.979Z,16.20
2019-04-07T10:53:21.630Z,15.53
2019-04-07T10:55:03.883Z,11.33
2019-04-07T10:56:39.771Z,11.75
2019-04-07T10:58:18.519Z,12.95
2019-04-07T10:59:57.875Z,12.82
2019-04-07T11:01:50.181Z,12.82
2019-04-07T11:03:26.021Z,13.68
2019-04-07T11:05:01.998Z,17.15
2019-04-07T11:06:53.643Z,14.00
2019-04-07T11:08:38.632Z,11.65
2019-04-07T11:10:14.732Z,13.83
2019-04-07T11:12:06.298Z,13.00
2019-04-07T11:13:45.701Z,13.40
2019-04-07T11:15:22.363Z,13.13
2019-04-07T11:17:08.169Z,14.10
2019-04-07T11:19:00.414Z,13.38
2019-04-07T11:20:52.622Z,13.03
2019-04-07T11:22:45.321Z,14.05
2019-04-07T11:24:21.824Z,14.25
2019-04-07T11:26:13.490Z,13.98
2019-04-07T11:27:50.382Z,13.40
2019-04-07T11:29:26.590Z,14.33
2019-04-07T11:31:02.469Z,12.93
2019-04-07T11:32:41.485Z,14.30
2019-04-07T11:34:21.657Z,13.62
2019-04-07T11:36:12.693Z,13.35
2019-04-07T11:38:05.683Z,13.00
2019-04-07T11:39:44.767Z,13.95
2019-04-07T11:41:29.567Z,12.93
2019-04-07T11:43:14.210Z,12.58
2019-04-07T11:45:06.745Z,16.20
2019-04-07T11:46:57.652Z,16.23
2019-04-07T11:48:50.403Z,15.05
2019-04-07T11:50:29.931Z,13.90
2019-04-07T11:52:06.119Z,14.90
2019-04-07T11:53:45.947Z,16.05
2019-04-07T11:55:26.124Z,11.90
2019-04-07T11:57:12.063Z,13.60
2019-04-07T11:58:55.240Z,12.33
2019-04-07T12:00:46.340Z,15.58
2019-04-07T12:02:28.979Z,11.68
2019-04-07T12:04:11.219Z,11.90
2019-04-07T12:05:48.428Z,13.32
2019-04-07T12:07:27.057Z,12.28
2019-04-07T12:09:13.094Z,13.10
2019-04-07T12:11:06.246Z,12.18
2019-04-07T12:12:48.294Z,12.47
2019-04-07T12:14:33.977Z,12.58
2019-04-07T12:16:28.632Z,13.72
2019-04-07T12:18:18.907Z,12.78
2019-04-07T12:20:11.682Z,13.30
2019-04-07T12:21:48.116Z,14.00
2019-04-07T12:23:42.294Z,15.13
2019-04-07T12:25:29.342Z,13.30
2019-04-07T12:27:21.663Z,13.60
2019-04-07T12:29:06.949Z,13.18
2019-04-07T12:30:54.963Z,12.55
2019-04-07T12:32:36.369Z,13.38
2019-04-07T12:34:22.208Z,13.15
2019-04-07T12:36:11.769Z,14.03
2019-04-07T12:37:54.185Z,13.40
2019-04-07T12:39:40.663Z,16.75
2019-04-07T12:41:32.785Z,13.75
2019-04-07T12:43:12.090Z,12.53
2019-04-07T12:44:49.524Z,15.25
2019-04-07T12:46:44.229Z,13.55
2019-04-07T12:48:36.721Z,32.13
2019-04-07T12:50:29.451Z,23.57
2019-04-07T12:52:26.136Z,12.90
2019-04-07T12:56:02.342Z,12.88
2019-04-07T12:57:39.784Z,11.03
2019-04-07T12:59:16.888Z,11.00
2019-04-07T13:01:06.845Z,13.95
2019-04-07T13:02:54.383Z,11.30
2019-04-07T13:04:30.610Z,11.85
2019-04-07T13:06:09.505Z,11.68
2019-04-07T13:07:59.220Z,11.33
2019-04-07T13:09:43.818Z,11.75
2019-04-07T13:11:39.450Z,12.43
2019-04-07T13:13:33.745Z,13.32
2019-04-07T13:15:19.427Z,14.03
2019-04-07T13:17:00.123Z,13.40
2019-04-07T13:18:42.461Z,12.93
2019-04-07T13:20:20.922Z,13.13
2019-04-07T13:22:13.157Z,12.30
2019-04-07T13:23:55.989Z,14.58
2019-04-07T13:25:44.192Z,16.17
2019-04-07T13:27:20.211Z,15.18
2019-04-07T13:28:57.533Z,16.27
2019-04-07T13:30:50.153Z,16.82
2019-04-07T13:32:41.549Z,14.73
2019-04-07T13:34:12.868Z,12.53
2019-04-07T13:36:07.238Z,13.43
2019-04-07T13:37:43.716Z,13.50
2019-04-07T13:39:19.942Z,14.35
2019-04-07T13:41:12.250Z,12.58
2019-04-07T13:42:52.091Z,12.63
2019-04-07T13:44:28.385Z,12.33
2019-04-07T13:46:04.515Z,13.83
2019-04-07T13:47:56.877Z,14.38
2019-04-07T13:49:39.600Z,13.43
2019-04-07T13:51:33.082Z,13.72
2019-04-07T13:53:09.904Z,12.93
2019-04-07T13:54:55.832Z,15.08
2019-04-07T13:56:34.467Z,13.70
2019-04-07T13:58:19.681Z,13.35
2019-04-07T14:00:16.012Z,14.38
2019-04-07T14:01:55.369Z,17.07
2019-04-07T14:03:35.600Z,18.87
2019-04-07T14:05:27.296Z,17.75
2019-04-07T14:07:04.095Z,15.55
2019-04-07T14:08:57.234Z,15.10
2019-04-07T14:10:41.730Z,15.23
2019-04-07T14:12:17.701Z,15.23
2019-04-07T14:14:09.758Z,13.80
2019-04-07T14:15:54.773Z,14.75
2019-04-07T14:17:37.337Z,14.87
2019-04-07T14:19:13.470Z,14.73
2019-04-07T14:21:01.867Z,14.07
2019-04-07T14:22:46.595Z,15.13
2019-04-07T14:24:31.675Z,15.98
2019-04-07T14:26:13.370Z,16.10
2019-04-07T14:27:55.822Z,15.10
2019-04-07T14:29:32.707Z,16.45
2019-04-07T14:31:09.440Z,14.63
2019-04-07T14:32:52.351Z,15.88
2019-04-07T14:34:37.278Z,17.30
2019-04-07T14:36:13.772Z,15.93
2019-04-07T14:37:52.748Z,17.60
2019-04-07T14:39:38.240Z,15.65
2019-04-07T14:41:33.280Z,16.48
2019-04-07T14:43:25.824Z,16.32
2019-04-07T14:45:18.802Z,17.67
2019-04-07T14:47:07.608Z,16.15
2019-04-07T14:48:46.713Z,15.93
2019-04-07T14:50:26.439Z,17.20
2019-04-07T14:52:02.588Z,17.82
2019-04-07T14:53:42.074Z,16.42
2019-04-07T14:55:18.442Z,17.00
2019-04-07T14:57:01.018Z,18.20
2019-04-07T14:58:52.565Z,18.75
2019-04-07T15:00:43.996Z,22.22
2019-04-07T15:02:19.102Z,23.57
2019-04-07T15:03:54.517Z,28.50
2019-04-07T15:05:31.005Z,22.45
2019-04-07T15:07:18.829Z,18.92
2019-04-07T15:08:55.267Z,18.30
2019-04-07T15:10:50.102Z,17.55
2019-04-07T15:12:32.309Z,17.10
2019-04-07T15:14:06.915Z,16.85
2019-04-07T15:15:41.794Z,16.35
2019-04-07T15:17:16.632Z,17.55
2019-04-07T15:18:51.243Z,16.10
2019-04-07T15:20:25.698Z,17.42
2019-04-07T15:22:02.356Z,17.48
2019-04-07T15:23:36.776Z,18.25
2019-04-07T15:25:11.931Z,19.10
2019-04-07T15:26:48.937Z,19.55
2019-04-07T15:28:22.566Z,19.37
2019-04-07T15:29:57.809Z,21.10
2019-04-07T15:31:33.095Z,20.23
2019-04-07T15:33:07.985Z,20.00
2019-04-07T15:34:43.230Z,16.85
2019-04-07T15:36:19.567Z,20.65
2019-04-07T15:37:54.933Z,20.48
2019-04-07T15:39:30.326Z,20.92
2019-04-07T15:41:09.885Z,23.45
2019-04-07T15:42:46.007Z,20.88
2019-04-07T15:44:17.457Z,22.48
2019-04-07T15:45:52.301Z,21.37
2019-04-07T15:47:27.624Z,20.60
2019-04-07T15:49:02.693Z,19.73
2019-04-07T15:50:38.057Z,19.57
2019-04-07T15:52:13.144Z,19.73
2019-04-07T15:53:51.339Z,20.15
2019-04-07T15:55:26.381Z,20.27
2019-04-07T15:57:01.064Z,20.43
2019-04-07T15:58:35.701Z,21.27
2019-04-07T16:00:11.122Z,22.02
2019-04-07T16:01:46.170Z,21.20
2019-04-07T16:03:21.167Z,31.25
2019-04-07T16:04:59.248Z,20.92
2019-04-07T16:06:34.844Z,23.30
2019-04-07T16:08:08.482Z,23.60
2019-04-07T16:09:50.753Z,22.17
2019-04-07T16:11:24.180Z,25.35
2019-04-07T16:12:58.802Z,27.80
2019-04-07T16:14:32.074Z,24.67
2019-04-07T16:16:06.610Z,28.87
2019-04-07T16:17:42.081Z,29.10
2019-04-07T16:19:24.926Z,24.80
2019-04-07T16:20:54.269Z,24.02
2019-04-07T16:22:28.888Z,22.00
2019-04-07T16:24:03.622Z,25.27
2019-04-07T16:25:40.215Z,23.30
2019-04-07T16:27:13.877Z,27.05
2019-04-07T16:28:48.495Z,28.50
2019-04-07T16:30:23.389Z,30.02
2019-04-07T16:31:58.699Z,28.55
2019-04-07T16:33:35.254Z,28.12
2019-04-07T16:35:14.936Z,24.15
2019-04-07T16:36:47.609Z,30.85
2019-04-07T16:38:22.052Z,24.95
2019-04-07T16:39:56.846Z,27.13
2019-04-07T16:41:31.585Z,28.38
2019-04-07T16:43:13.443Z,29.75
2019-04-07T16:44:44.175Z,31.02
2019-04-07T16:46:21.635Z,30.48
2019-04-07T16:47:56.431Z,25.25
2019-04-07T16:49:31.531Z,27.27
2019-04-07T16:51:06.330Z,25.15
2019-04-07T16:52:41.860Z,27.85
2019-04-07T16:54:16.401Z,22.58
2019-04-07T16:55:54.057Z,24.18
2019-04-07T16:57:30.169Z,21.00
2019-04-07T16:59:02.913Z,22.32
2019-04-07T17:00:38.390Z,21.25
2019-04-07T17:02:14.504Z,22.05
2019-04-07T17:03:49.916Z,28.52
2019-04-07T17:05:41.757Z,26.02
2019-04-07T17:07:17.835Z,27.70
2019-04-07T17:08:53.179Z,26.10
2019-04-07T17:10:32.392Z,26.15
2019-04-07T17:12:04.398Z,24.05
2019-04-07T17:13:41.865Z,28.25
2019-04-07T17:15:15.467Z,30.43
2019-04-07T17:16:50.406Z,31.65
2019-04-07T17:18:37.061Z,32.15
2019-04-07T17:20:12.424Z,39.73
2019-04-07T17:21:47.049Z,42.45
2019-04-07T17:23:23.944Z,41.10
2019-04-07T17:25:00.077Z,37.78
2019-04-07T17:26:37.440Z,38.75
2019-04-07T17:28:12.121Z,33.02
2019-04-07T17:29:50.272Z,29.85
2019-04-07T17:31:22.886Z,30.88
2019-04-07T17:32:57.550Z,31.42
2019-04-07T17:34:32.549Z,32.53
2019-04-07T17:36:07.896Z,35.45
2019-04-07T17:37:42.636Z,35.38
2019-04-07T17:39:21.725Z,38.28
2019-04-07T17:40:57.915Z,41.25
2019-04-07T17:42:32.386Z,34.55
2019-04-07T17:44:25.129Z,36.05
2019-04-07T17:46:13.054Z,31.77
2019-04-07T17:47:52.807Z,27.93
2019-04-07T17:49:41.162Z,24.90
2019-04-07T17:51:20.010Z,28.30
2019-04-07T17:52:58.696Z,27.27
2019-04-07T17:54:43.849Z,23.25
2019-04-07T17:56:20.187Z,23.60
2019-04-07T17:57:59.786Z,26.25
2019-04-07T17:59:38.931Z,24.77
2019-04-07T18:01:30.066Z,27.13
2019-04-07T18:03:09.883Z,26.57
2019-04-07T18:05:01.872Z,25.52
2019-04-07T18:06:43.956Z,23.80
2019-04-07T18:08:19.984Z,27.13
2019-04-07T18:09:59.443Z,27.27
2019-04-07T18:11:35.621Z,27.30
2019-04-07T18:13:22.662Z,28.10
2019-04-07T18:15:05.790Z,26.35
2019-04-07T18:16:40.739Z,25.08
2019-04-07T18:18:35.013Z,25.20
2019-04-07T18:20:22.916Z,26.33
2019-04-07T18:22:18.251Z,26.30
2019-04-07T18:24:09.256Z,25.92
2019-04-07T18:25:53.231Z,25.30
2019-04-07T18:27:29.514Z,24.60
2019-04-07T18:29:25.673Z,21.60
2019-04-07T18:31:06.606Z,23.65
2019-04-07T18:32:49.387Z,23.83
2019-04-07T18:34:33.347Z,24.10
2019-04-07T18:36:09.608Z,22.95
2019-04-07T18:37:48.420Z,22.30
2019-04-07T18:39:30.596Z,22.50
2019-04-07T18:41:22.187Z,23.45
2019-04-07T18:43:08.026Z,21.97
2019-04-07T18:44:50.955Z,20.35
2019-04-07T18:46:33.475Z,19.37
2019-04-07T18:48:16.581Z,19.87
2019-04-07T18:50:03.962Z,19.70
2019-04-07T18:51:41.316Z,19.37
2019-04-07T18:53:17.756Z,20.25
2019-04-07T18:55:11.654Z,20.48
2019-04-07T18:56:50.701Z,21.35
2019-04-07T18:58:26.731Z,21.10
2019-04-07T19:00:14.828Z,19.92
2019-04-07T19:02:00.215Z,22.37
2019-04-07T19:03:53.516Z,27.52
2019-04-07T19:05:35.673Z,24.32
2019-04-07T19:07:15.174Z,39.05
2019-04-07T19:09:06.895Z,30.95
2019-04-07T19:10:46.261Z,32.08
2019-04-07T19:12:28.037Z,30.75
2019-04-07T19:14:27.012Z,30.17
2019-04-07T19:15:47.195Z,30.57
2019-04-07T19:17:23.460Z,31.48
2019-04-07T19:18:58.979Z,30.92
2019-04-07T19:20:53.559Z,28.87
2019-04-07T19:22:31.371Z,38.33
2019-04-07T19:24:09.210Z,35.75
2019-04-07T19:25:58.869Z,27.80
2019-04-07T19:27:47.049Z,28.55
2019-04-07T19:29:28.964Z,29.30
2019-04-07T19:31:08.593Z,29.52
2019-04-07T19:32:48.482Z,29.32
2019-04-07T19:34:30.693Z,28.83
2019-04-07T19:36:05.963Z,28.12
2019-04-07T19:39:49.078Z,27.05
2019-04-07T19:41:43.332Z,40.63
2019-04-07T19:43:35.211Z,45.52
2019-04-07T19:45:11.251Z,45.38
2019-04-07T19:46:50.336Z,42.10
2019-04-07T19:48:29.446Z,59.03
2019-04-07T19:50:09.607Z,50.83
2019-04-07T19:52:05.382Z,38.08
2019-04-07T19:53:43.187Z,36.13
2019-04-07T19:55:24.932Z,33.85
2019-04-07T19:57:07.041Z,35.33
2019-04-07T19:58:52.097Z,54.55
2019-04-07T20:00:28.927Z,42.08
2019-04-07T20:02:08.271Z,34.45
2019-04-07T20:03:44.767Z,35.33
2019-04-07T20:05:29.977Z,35.35
2019-04-07T20:07:15.847Z,33.80
2019-04-07T20:08:57.941Z,37.10
2019-04-07T20:10:36.790Z,40.70
2019-04-07T20:12:16.262Z,42.30
2019-04-07T20:13:58.931Z,38.55
2019-04-07T20:15:39.043Z,36.25
2019-04-07T20:17:29.965Z,29.37
2019-04-07T20:19:07.056Z,28.35
2019-04-07T20:20:53.524Z,27.77
2019-04-07T20:22:29.377Z,28.12
2019-04-07T20:24:09.576Z,28.32
2019-04-07T20:25:47.910Z,28.07
2019-04-07T20:27:38.901Z,26.82
2019-04-07T20:29:20.568Z,26.02
2019-04-07T20:30:59.999Z,25.15
2019-04-07T20:32:45.845Z,26.30
2019-04-07T20:34:41.714Z,25.60
2019-04-07T20:36:23.495Z,24.55
2019-04-07T20:38:08.136Z,26.00
2019-04-07T20:39:47.744Z,26.37
2019-04-07T20:41:23.992Z,25.62
2019-04-07T20:43:12.325Z,28.23
2019-04-07T20:45:13.174Z,27.52
2019-04-07T20:46:42.315Z,28.60
2019-04-07T20:48:19.174Z,27.20
2019-04-07T20:50:12.997Z,26.60
2019-04-07T20:51:54.832Z,27.52
2019-04-07T20:53:33.742Z,27.00
2019-04-07T20:55:12.076Z,29.37
2019-04-07T20:56:51.886Z,26.85
2019-04-07T20:58:43.663Z,26.23
2019-04-07T21:00:12.716Z,27.32
2019-04-07T21:02:03.370Z,25.40
2019-04-07T21:03:50.811Z,26.23
2019-04-07T21:07:12.933Z,25.63
2019-04-07T21:08:54.608Z,25.70
2019-04-07T21:10:48.511Z,26.68
2019-04-07T21:12:25.229Z,27.35
2019-04-07T21:14:02.997Z,26.97
2019-04-07T21:15:44.887Z,25.85
2019-04-07T21:17:32.556Z,25.92
2019-04-07T21:19:09.580Z,24.70
2019-04-07T21:20:58.835Z,24.23
2019-04-07T21:22:47.714Z,24.63
2019-04-07T21:24:37.262Z,24.60
2019-04-07T21:26:31.315Z,24.67
2019-04-07T21:28:10.811Z,24.57
2019-04-07T21:30:00.296Z,25.40
2019-04-07T21:31:42.960Z,25.17
2019-04-07T21:33:34.509Z,24.05
2019-04-07T21:35:13.194Z,25.55